sensor_id;sensor_type;location;lat;lon;timestamp;temperature;humidity
37310;DHT22;23195;47.744;7.358;2022-08-01T00:00:03;21.10;99.90
37310;DHT22;23195;47.744;7.358;2022-08-01T00:02:33;21.00;99.90
37310;DHT22;23195;47.744;7.358;2022-08-01T00:04:59;20.90;99.90
37310;DHT22;23195;47.744;7.358;2022-08-01T00:07:31;20.90;99.90
37310;DHT22;23195;47.744;7.358;2022-08-01T00:09:57;20.90;99.90
37310;DHT22;23195;47.744;7.358;2022-08-01T00:12:23;20.90;99.90
37310;DHT22;23195;47.744;7.358;2022-08-01T00:14:49;20.80;99.90
37310;DHT22;23195;47.744;7.358;2022-08-01T00:17:15;20.80;99.90
37310;DHT22;23195;47.744;7.358;2022-08-01T00:19:41;20.80;99.90
37310;DHT22;23195;47.744;7.358;2022-08-01T00:22:08;20.70;99.90
37310;DHT22;23195;47.744;7.358;2022-08-01T00:24:34;20.60;99.90
37310;DHT22;23195;47.744;7.358;2022-08-01T00:27:05;20.70;99.90
37310;DHT22;23195;47.744;7.358;2022-08-01T00:29:31;20.60;99.90
37310;DHT22;23195;47.744;7.358;2022-08-01T00:31:57;20.50;99.90
37310;DHT22;23195;47.744;7.358;2022-08-01T00:34:23;20.40;99.90
37310;DHT22;23195;47.744;7.358;2022-08-01T00:36:49;20.30;99.90
37310;DHT22;23195;47.744;7.358;2022-08-01T00:39:15;20.40;99.90
37310;DHT22;23195;47.744;7.358;2022-08-01T00:41:44;20.30;99.90
37310;DHT22;23195;47.744;7.358;2022-08-01T00:44:10;20.30;99.90
37310;DHT22;23195;47.744;7.358;2022-08-01T00:46:36;20.30;99.90
37310;DHT22;23195;47.744;7.358;2022-08-01T00:49:05;20.20;99.90
37310;DHT22;23195;47.744;7.358;2022-08-01T00:51:34;20.10;99.90
37310;DHT22;23195;47.744;7.358;2022-08-01T00:54:05;20.10;99.90
37310;DHT22;23195;47.744;7.358;2022-08-01T00:56:46;20.10;99.90
37310;DHT22;23195;47.744;7.358;2022-08-01T00:59:14;20.00;99.90
37310;DHT22;23195;47.744;7.358;2022-08-01T01:01:51;20.00;99.90
37310;DHT22;23195;47.744;7.358;2022-08-01T01:04:22;20.00;99.90
37310;DHT22;23195;47.744;7.358;2022-08-01T01:09:58;19.90;99.90
37310;DHT22;23195;47.744;7.358;2022-08-01T01:12:50;20.50;99.90
37310;DHT22;23195;47.744;7.358;2022-08-01T01:18:25;19.80;99.90
37310;DHT22;23195;47.744;7.358;2022-08-01T01:24:23;19.70;99.90
37310;DHT22;23195;47.744;7.358;2022-08-01T01:29:42;19.70;99.90
37310;DHT22;23195;47.744;7.358;2022-08-01T01:32:23;19.40;99.90
37310;DHT22;23195;47.744;7.358;2022-08-01T01:34:55;19.60;99.90
37310;DHT22;23195;47.744;7.358;2022-08-01T01:37:27;19.70;99.90
37310;DHT22;23195;47.744;7.358;2022-08-01T01:39:58;19.90;99.90
37310;DHT22;23195;47.744;7.358;2022-08-01T01:42:25;19.60;99.90
37310;DHT22;23195;47.744;7.358;2022-08-01T01:44:58;19.50;99.90
37310;DHT22;23195;47.744;7.358;2022-08-01T01:47:25;19.60;99.90
37310;DHT22;23195;47.744;7.358;2022-08-01T01:49:57;19.30;99.90
37310;DHT22;23195;47.744;7.358;2022-08-01T01:52:29;19.40;99.90
37310;DHT22;23195;47.744;7.358;2022-08-01T01:55:01;19.70;99.90
37310;DHT22;23195;47.744;7.358;2022-08-01T01:57:32;19.20;99.90
37310;DHT22;23195;47.744;7.358;2022-08-01T02:00:02;19.40;99.90
37310;DHT22;23195;47.744;7.358;2022-08-01T02:02:28;19.40;99.90
37310;DHT22;23195;47.744;7.358;2022-08-01T02:04:59;19.40;99.90
37310;DHT22;23195;47.744;7.358;2022-08-01T02:07:32;19.30;99.90
37310;DHT22;23195;47.744;7.358;2022-08-01T02:10:00;19.20;99.90
37310;DHT22;23195;47.744;7.358;2022-08-01T02:12:36;19.30;99.90
37310;DHT22;23195;47.744;7.358;2022-08-01T02:15:04;19.20;99.90
37310;DHT22;23195;47.744;7.358;2022-08-01T02:17:31;19.20;99.90
37310;DHT22;23195;47.744;7.358;2022-08-01T02:20:02;19.20;99.90
37310;DHT22;23195;47.744;7.358;2022-08-01T02:25:48;19.20;99.90
37310;DHT22;23195;47.744;7.358;2022-08-01T02:28:34;19.10;99.90
37310;DHT22;23195;47.744;7.358;2022-08-01T02:31:13;19.00;99.90
37310;DHT22;23195;47.744;7.358;2022-08-01T02:34:09;19.00;99.90
37310;DHT22;23195;47.744;7.358;2022-08-01T02:39:57;19.00;99.90
37310;DHT22;23195;47.744;7.358;2022-08-01T02:42:39;19.00;99.90
37310;DHT22;23195;47.744;7.358;2022-08-01T02:45:07;19.00;99.90
37310;DHT22;23195;47.744;7.358;2022-08-01T02:47:36;19.00;99.90
37310;DHT22;23195;47.744;7.358;2022-08-01T02:50:13;19.50;99.90
37310;DHT22;23195;47.744;7.358;2022-08-01T02:52:44;18.90;99.90
37310;DHT22;23195;47.744;7.358;2022-08-01T02:55:12;18.90;99.90
37310;DHT22;23195;47.744;7.358;2022-08-01T02:57:39;19.30;99.90
37310;DHT22;23195;47.744;7.358;2022-08-01T03:00:06;18.80;99.90
37310;DHT22;23195;47.744;7.358;2022-08-01T03:02:34;18.70;99.90
37310;DHT22;23195;47.744;7.358;2022-08-01T03:05:05;18.70;99.90
37310;DHT22;23195;47.744;7.358;2022-08-01T03:07:34;18.70;99.90
37310;DHT22;23195;47.744;7.358;2022-08-01T03:10:01;18.60;99.90
37310;DHT22;23195;47.744;7.358;2022-08-01T03:12:29;18.60;99.90
37310;DHT22;23195;47.744;7.358;2022-08-01T03:15:03;18.50;99.90
37310;DHT22;23195;47.744;7.358;2022-08-01T03:17:30;18.50;99.90
37310;DHT22;23195;47.744;7.358;2022-08-01T03:19:58;18.70;99.90
37310;DHT22;23195;47.744;7.358;2022-08-01T03:22:29;18.50;99.90
37310;DHT22;23195;47.744;7.358;2022-08-01T03:25:18;18.50;99.90
37310;DHT22;23195;47.744;7.358;2022-08-01T03:27:54;18.40;99.90
37310;DHT22;23195;47.744;7.358;2022-08-01T03:30:23;18.40;99.90
37310;DHT22;23195;47.744;7.358;2022-08-01T03:32:49;18.40;99.90
37310;DHT22;23195;47.744;7.358;2022-08-01T03:35:16;18.20;99.90
37310;DHT22;23195;47.744;7.358;2022-08-01T03:37:50;18.30;99.90
37310;DHT22;23195;47.744;7.358;2022-08-01T03:40:32;18.30;99.90
37310;DHT22;23195;47.744;7.358;2022-08-01T03:43:16;18.30;99.90
37310;DHT22;23195;47.744;7.358;2022-08-01T03:45:51;18.20;99.90
37310;DHT22;23195;47.744;7.358;2022-08-01T03:48:29;18.20;99.90
37310;DHT22;23195;47.744;7.358;2022-08-01T03:51:10;18.20;99.90
37310;DHT22;23195;47.744;7.358;2022-08-01T03:53:42;18.10;99.90
37310;DHT22;23195;47.744;7.358;2022-08-01T03:56:18;18.10;99.90
37310;DHT22;23195;47.744;7.358;2022-08-01T03:58:50;18.00;99.90
37310;DHT22;23195;47.744;7.358;2022-08-01T04:01:32;18.10;99.90
37310;DHT22;23195;47.744;7.358;2022-08-01T04:03:59;17.90;99.90
37310;DHT22;23195;47.744;7.358;2022-08-01T04:06:40;18.00;99.90
37310;DHT22;23195;47.744;7.358;2022-08-01T04:09:21;18.00;99.90
37310;DHT22;23195;47.744;7.358;2022-08-01T04:12:01;18.00;99.90
37310;DHT22;23195;47.744;7.358;2022-08-01T04:14:36;17.90;99.90
37310;DHT22;23195;47.744;7.358;2022-08-01T04:17:13;17.90;99.90
37310;DHT22;23195;47.744;7.358;2022-08-01T04:19:48;17.90;99.90
37310;DHT22;23195;47.744;7.358;2022-08-01T04:22:21;17.60;99.90
37310;DHT22;23195;47.744;7.358;2022-08-01T04:24:56;17.90;99.90
37310;DHT22;23195;47.744;7.358;2022-08-01T04:27:31;17.90;99.90
37310;DHT22;23195;47.744;7.358;2022-08-01T04:30:05;18.00;99.90
37310;DHT22;23195;47.744;7.358;2022-08-01T04:32:38;18.00;99.90
37310;DHT22;23195;47.744;7.358;2022-08-01T04:35:24;18.00;99.90
37310;DHT22;23195;47.744;7.358;2022-08-01T04:37:51;18.00;99.90
37310;DHT22;23195;47.744;7.358;2022-08-01T04:40:30;18.10;99.90
37310;DHT22;23195;47.744;7.358;2022-08-01T04:43:02;18.00;99.90
37310;DHT22;23195;47.744;7.358;2022-08-01T04:45:31;18.20;99.90
37310;DHT22;23195;47.744;7.358;2022-08-01T04:48:00;18.50;99.90
37310;DHT22;23195;47.744;7.358;2022-08-01T04:50:41;19.20;99.90
37310;DHT22;23195;47.744;7.358;2022-08-01T04:53:13;20.50;99.90
37310;DHT22;23195;47.744;7.358;2022-08-01T04:55:49;22.30;99.90
37310;DHT22;23195;47.744;7.358;2022-08-01T04:58:50;22.90;99.90
37310;DHT22;23195;47.744;7.358;2022-08-01T05:08:39;26.10;99.90
37310;DHT22;23195;47.744;7.358;2022-08-01T05:11:07;26.80;99.90
37310;DHT22;23195;47.744;7.358;2022-08-01T05:13:33;27.50;99.90
37310;DHT22;23195;47.744;7.358;2022-08-01T05:15:59;27.80;99.80
37310;DHT22;23195;47.744;7.358;2022-08-01T05:18:25;28.50;97.70
37310;DHT22;23195;47.744;7.358;2022-08-01T05:24:23;29.30;95.00
37310;DHT22;23195;47.744;7.358;2022-08-01T05:27:27;30.20;93.10
37310;DHT22;23195;47.744;7.358;2022-08-01T05:30:32;30.50;91.70
37310;DHT22;23195;47.744;7.358;2022-08-01T05:33:24;30.80;90.70
37310;DHT22;23195;47.744;7.358;2022-08-01T05:40:09;31.90;85.70
37310;DHT22;23195;47.744;7.358;2022-08-01T05:42:35;32.50;82.60
37310;DHT22;23195;47.744;7.358;2022-08-01T05:45:00;32.00;81.90
37310;DHT22;23195;47.744;7.358;2022-08-01T05:47:26;31.80;82.30
37310;DHT22;23195;47.744;7.358;2022-08-01T05:49:52;32.00;81.40
37310;DHT22;23195;47.744;7.358;2022-08-01T05:52:23;32.40;79.60
37310;DHT22;23195;47.744;7.358;2022-08-01T05:54:54;32.40;79.60
37310;DHT22;23195;47.744;7.358;2022-08-01T05:57:20;33.00;77.20
37310;DHT22;23195;47.744;7.358;2022-08-01T05:59:46;33.20;75.90
37310;DHT22;23195;47.744;7.358;2022-08-01T06:02:33;32.20;76.20
37310;DHT22;23195;47.744;7.358;2022-08-01T06:04:59;31.70;77.50
37310;DHT22;23195;47.744;7.358;2022-08-01T06:07:25;31.00;78.50
37310;DHT22;23195;47.744;7.358;2022-08-01T06:09:51;29.90;81.40
37310;DHT22;23195;47.744;7.358;2022-08-01T06:12:21;29.50;83.50
37310;DHT22;23195;47.744;7.358;2022-08-01T06:14:47;28.60;86.10
37310;DHT22;23195;47.744;7.358;2022-08-01T06:17:13;28.00;87.50
37310;DHT22;23195;47.744;7.358;2022-08-01T06:19:38;27.40;89.60
37310;DHT22;23195;47.744;7.358;2022-08-01T06:22:05;26.80;91.10
37310;DHT22;23195;47.744;7.358;2022-08-01T06:24:49;24.60;91.40
37310;DHT22;23195;47.744;7.358;2022-08-01T06:27:18;25.90;93.20
37310;DHT22;23195;47.744;7.358;2022-08-01T06:29:50;25.40;93.90
37310;DHT22;23195;47.744;7.358;2022-08-01T06:32:19;25.00;95.00
37310;DHT22;23195;47.744;7.358;2022-08-01T06:34:45;24.50;96.00
37310;DHT22;23195;47.744;7.358;2022-08-01T06:37:11;24.30;97.00
37310;DHT22;23195;47.744;7.358;2022-08-01T06:39:41;24.30;98.20
37310;DHT22;23195;47.744;7.358;2022-08-01T06:42:07;24.20;98.90
37310;DHT22;23195;47.744;7.358;2022-08-01T06:44:34;24.20;99.00
37310;DHT22;23195;47.744;7.358;2022-08-01T06:47:00;24.30;99.50
37310;DHT22;23195;47.744;7.358;2022-08-01T06:49:26;24.10;99.50
37310;DHT22;23195;47.744;7.358;2022-08-01T06:51:52;24.60;99.90
37310;DHT22;23195;47.744;7.358;2022-08-01T06:54:18;25.80;98.50
37310;DHT22;23195;47.744;7.358;2022-08-01T06:56:44;27.70;95.20
37310;DHT22;23195;47.744;7.358;2022-08-01T06:59:09;30.10;91.20
37310;DHT22;23195;47.744;7.358;2022-08-01T07:01:35;31.90;87.40
37310;DHT22;23195;47.744;7.358;2022-08-01T07:04:09;32.60;81.30
37310;DHT22;23195;47.744;7.358;2022-08-01T07:06:35;33.50;79.10
37310;DHT22;23195;47.744;7.358;2022-08-01T07:09:01;34.90;73.80
37310;DHT22;23195;47.744;7.358;2022-08-01T07:11:32;35.90;71.00
37310;DHT22;23195;47.744;7.358;2022-08-01T07:14:05;36.30;68.50
37310;DHT22;23195;47.744;7.358;2022-08-01T07:16:36;35.70;66.20
37310;DHT22;23195;47.744;7.358;2022-08-01T07:19:10;35.80;67.00
37310;DHT22;23195;47.744;7.358;2022-08-01T07:21:38;36.70;65.20
37310;DHT22;23195;47.744;7.358;2022-08-01T07:24:09;36.50;63.70
37310;DHT22;23195;47.744;7.358;2022-08-01T07:26:35;33.20;68.90
37310;DHT22;23195;47.744;7.358;2022-08-01T07:29:01;32.90;71.90
37310;DHT22;23195;47.744;7.358;2022-08-01T07:31:41;33.50;70.00
37310;DHT22;23195;47.744;7.358;2022-08-01T07:34:07;34.10;69.80
37310;DHT22;23195;47.744;7.358;2022-08-01T07:36:33;35.20;67.40
37310;DHT22;23195;47.744;7.358;2022-08-01T07:38:59;36.50;66.10
37310;DHT22;23195;47.744;7.358;2022-08-01T07:41:26;37.00;63.50
37310;DHT22;23195;47.744;7.358;2022-08-01T07:43:56;37.10;62.30
37310;DHT22;23195;47.744;7.358;2022-08-01T07:46:28;37.50;61.70
37310;DHT22;23195;47.744;7.358;2022-08-01T07:48:58;38.30;60.20
37310;DHT22;23195;47.744;7.358;2022-08-01T07:51:24;38.10;60.60
37310;DHT22;23195;47.744;7.358;2022-08-01T07:53:50;37.60;59.50
37310;DHT22;23195;47.744;7.358;2022-08-01T07:56:16;37.50;59.70
37310;DHT22;23195;47.744;7.358;2022-08-01T07:58:58;37.30;60.30
37310;DHT22;23195;47.744;7.358;2022-08-01T08:01:24;38.00;59.40
37310;DHT22;23195;47.744;7.358;2022-08-01T08:03:50;38.80;58.40
37310;DHT22;23195;47.744;7.358;2022-08-01T08:06:21;39.30;56.80
37310;DHT22;23195;47.744;7.358;2022-08-01T08:08:47;39.60;55.80
37310;DHT22;23195;47.744;7.358;2022-08-01T08:11:13;39.70;55.90
37310;DHT22;23195;47.744;7.358;2022-08-01T08:13:39;39.50;55.20
37310;DHT22;23195;47.744;7.358;2022-08-01T08:16:08;38.80;54.90
37310;DHT22;23195;47.744;7.358;2022-08-01T08:18:36;38.10;55.10
37310;DHT22;23195;47.744;7.358;2022-08-01T08:21:05;37.00;56.40
37310;DHT22;23195;47.744;7.358;2022-08-01T08:23:31;37.80;56.00
37310;DHT22;23195;47.744;7.358;2022-08-01T08:26:19;38.40;55.30
37310;DHT22;23195;47.744;7.358;2022-08-01T08:28:45;38.80;55.00
37310;DHT22;23195;47.744;7.358;2022-08-01T08:31:15;39.10;54.60
37310;DHT22;23195;47.744;7.358;2022-08-01T08:33:46;39.80;54.30
37310;DHT22;23195;47.744;7.358;2022-08-01T08:36:15;39.20;54.40
37310;DHT22;23195;47.744;7.358;2022-08-01T08:39:01;39.50;54.60
37310;DHT22;23195;47.744;7.358;2022-08-01T08:41:29;39.40;53.00
37310;DHT22;23195;47.744;7.358;2022-08-01T08:44:04;38.30;53.30
37310;DHT22;23195;47.744;7.358;2022-08-01T08:46:39;38.30;53.90
37310;DHT22;23195;47.744;7.358;2022-08-01T08:49:06;38.00;54.20
37310;DHT22;23195;47.744;7.358;2022-08-01T08:51:34;37.30;54.70
37310;DHT22;23195;47.744;7.358;2022-08-01T08:54:07;37.80;54.30
37310;DHT22;23195;47.744;7.358;2022-08-01T08:56:40;37.60;55.30
37310;DHT22;23195;47.744;7.358;2022-08-01T08:59:11;37.10;56.20
37310;DHT22;23195;47.744;7.358;2022-08-01T09:01:43;37.70;55.70
37310;DHT22;23195;47.744;7.358;2022-08-01T09:04:10;37.90;55.30
37310;DHT22;23195;47.744;7.358;2022-08-01T09:06:39;38.00;54.90
37310;DHT22;23195;47.744;7.358;2022-08-01T09:09:06;37.20;56.80
37310;DHT22;23195;47.744;7.358;2022-08-01T09:11:33;36.30;56.90
37310;DHT22;23195;47.744;7.358;2022-08-01T09:14:12;36.50;56.50
37310;DHT22;23195;47.744;7.358;2022-08-01T09:17:09;36.90;56.20
37310;DHT22;23195;47.744;7.358;2022-08-01T09:19:45;35.80;57.60
37310;DHT22;23195;47.744;7.358;2022-08-01T09:22:25;35.50;58.40
37310;DHT22;23195;47.744;7.358;2022-08-01T09:25:00;35.10;58.00
37310;DHT22;23195;47.744;7.358;2022-08-01T09:27:30;35.10;58.20
37310;DHT22;23195;47.744;7.358;2022-08-01T09:30:13;35.20;58.30
37310;DHT22;23195;47.744;7.358;2022-08-01T09:32:59;34.90;59.10
37310;DHT22;23195;47.744;7.358;2022-08-01T09:35:54;35.40;57.90
37310;DHT22;23195;47.744;7.358;2022-08-01T09:38:24;35.30;58.00
37310;DHT22;23195;47.744;7.358;2022-08-01T09:43:29;34.20;59.30
37310;DHT22;23195;47.744;7.358;2022-08-01T09:46:04;33.90;59.50
37310;DHT22;23195;47.744;7.358;2022-08-01T09:48:34;33.50;60.30
37310;DHT22;23195;47.744;7.358;2022-08-01T09:51:08;33.00;62.70
37310;DHT22;23195;47.744;7.358;2022-08-01T09:53:47;32.60;62.80
37310;DHT22;23195;47.744;7.358;2022-08-01T09:56:16;32.30;64.10
37310;DHT22;23195;47.744;7.358;2022-08-01T09:59:08;32.00;64.40
37310;DHT22;23195;47.744;7.358;2022-08-01T10:01:53;31.50;63.80
37310;DHT22;23195;47.744;7.358;2022-08-01T10:04:20;31.00;65.00
37310;DHT22;23195;47.744;7.358;2022-08-01T10:06:48;30.70;65.70
37310;DHT22;23195;47.744;7.358;2022-08-01T10:09:30;30.80;65.90
37310;DHT22;23195;47.744;7.358;2022-08-01T10:12:00;30.50;64.90
37310;DHT22;23195;47.744;7.358;2022-08-01T10:14:27;30.40;66.70
37310;DHT22;23195;47.744;7.358;2022-08-01T10:16:54;30.20;67.00
37310;DHT22;23195;47.744;7.358;2022-08-01T10:19:22;30.10;65.90
37310;DHT22;23195;47.744;7.358;2022-08-01T10:21:49;30.10;66.10
37310;DHT22;23195;47.744;7.358;2022-08-01T10:24:21;30.00;68.10
37310;DHT22;23195;47.744;7.358;2022-08-01T10:27:04;30.10;65.80
37310;DHT22;23195;47.744;7.358;2022-08-01T10:29:57;30.20;65.70
37310;DHT22;23195;47.744;7.358;2022-08-01T10:32:26;30.10;64.80
37310;DHT22;23195;47.744;7.358;2022-08-01T10:34:52;30.00;65.80
37310;DHT22;23195;47.744;7.358;2022-08-01T10:37:20;30.10;62.80
37310;DHT22;23195;47.744;7.358;2022-08-01T10:39:46;30.10;62.40
37310;DHT22;23195;47.744;7.358;2022-08-01T10:42:12;30.20;63.30
37310;DHT22;23195;47.744;7.358;2022-08-01T10:44:39;30.30;63.70
37310;DHT22;23195;47.744;7.358;2022-08-01T10:47:12;30.40;62.70
37310;DHT22;23195;47.744;7.358;2022-08-01T10:50:02;30.50;63.30
37310;DHT22;23195;47.744;7.358;2022-08-01T10:52:29;30.40;60.80
37310;DHT22;23195;47.744;7.358;2022-08-01T10:55:04;30.50;62.20
37310;DHT22;23195;47.744;7.358;2022-08-01T10:57:46;30.60;61.00
37310;DHT22;23195;47.744;7.358;2022-08-01T11:07:34;30.60;62.30
37310;DHT22;23195;47.744;7.358;2022-08-01T11:10:13;30.30;61.80
37310;DHT22;23195;47.744;7.358;2022-08-01T11:12:41;30.60;61.80
37310;DHT22;23195;47.744;7.358;2022-08-01T11:17:43;30.80;61.40
37310;DHT22;23195;47.744;7.358;2022-08-01T11:20:26;30.80;60.80
37310;DHT22;23195;47.744;7.358;2022-08-01T11:25:28;31.00;61.60
37310;DHT22;23195;47.744;7.358;2022-08-01T11:30:41;31.20;61.00
37310;DHT22;23195;47.744;7.358;2022-08-01T11:33:07;31.30;61.10
37310;DHT22;23195;47.744;7.358;2022-08-01T11:35:35;31.20;60.60
37310;DHT22;23195;47.744;7.358;2022-08-01T11:38:24;31.30;60.60
37310;DHT22;23195;47.744;7.358;2022-08-01T11:41:26;31.40;59.80
37310;DHT22;23195;47.744;7.358;2022-08-01T11:43:55;31.90;59.60
37310;DHT22;23195;47.744;7.358;2022-08-01T11:49:43;32.30;57.80
37310;DHT22;23195;47.744;7.358;2022-08-01T11:52:23;32.30;58.30
37310;DHT22;23195;47.744;7.358;2022-08-01T11:54:51;32.20;57.80
37310;DHT22;23195;47.744;7.358;2022-08-01T11:57:23;32.30;56.80
37310;DHT22;23195;47.744;7.358;2022-08-01T11:59:59;32.20;57.70
37310;DHT22;23195;47.744;7.358;2022-08-01T12:02:30;32.20;57.90
37310;DHT22;23195;47.744;7.358;2022-08-01T12:05:09;32.10;58.80
37310;DHT22;23195;47.744;7.358;2022-08-01T12:07:38;32.20;58.70
37310;DHT22;23195;47.744;7.358;2022-08-01T12:10:08;32.30;59.00
37310;DHT22;23195;47.744;7.358;2022-08-01T12:12:36;32.20;58.30
37310;DHT22;23195;47.744;7.358;2022-08-01T12:15:05;32.10;59.00
37310;DHT22;23195;47.744;7.358;2022-08-01T12:17:36;32.10;55.60
37310;DHT22;23195;47.744;7.358;2022-08-01T12:20:05;32.10;56.30
37310;DHT22;23195;47.744;7.358;2022-08-01T12:22:31;32.00;54.40
37310;DHT22;23195;47.744;7.358;2022-08-01T12:25:11;32.00;54.80
37310;DHT22;23195;47.744;7.358;2022-08-01T12:27:39;32.10;54.50
37310;DHT22;23195;47.744;7.358;2022-08-01T12:30:11;31.90;56.40
37310;DHT22;23195;47.744;7.358;2022-08-01T12:32:39;32.00;55.70
37310;DHT22;23195;47.744;7.358;2022-08-01T12:35:11;32.30;56.40
37310;DHT22;23195;47.744;7.358;2022-08-01T12:37:48;32.20;56.80
37310;DHT22;23195;47.744;7.358;2022-08-01T12:42:55;32.30;57.50
37310;DHT22;23195;47.744;7.358;2022-08-01T12:45:25;32.60;57.20
37310;DHT22;23195;47.744;7.358;2022-08-01T12:47:52;32.80;56.20
37310;DHT22;23195;47.744;7.358;2022-08-01T12:50:27;32.90;56.30
37310;DHT22;23195;47.744;7.358;2022-08-01T12:52:56;33.10;55.80
37310;DHT22;23195;47.744;7.358;2022-08-01T12:55:25;33.10;55.50
37310;DHT22;23195;47.744;7.358;2022-08-01T12:58:07;33.20;55.20
37310;DHT22;23195;47.744;7.358;2022-08-01T13:00:34;33.10;55.40
37310;DHT22;23195;47.744;7.358;2022-08-01T13:03:29;32.70;55.10
37310;DHT22;23195;47.744;7.358;2022-08-01T13:05:57;32.90;55.40
37310;DHT22;23195;47.744;7.358;2022-08-01T13:11:01;32.70;56.20
37310;DHT22;23195;47.744;7.358;2022-08-01T13:13:38;32.60;56.30
37310;DHT22;23195;47.744;7.358;2022-08-01T13:16:05;32.50;56.80
37310;DHT22;23195;47.744;7.358;2022-08-01T13:18:34;32.50;58.10
37310;DHT22;23195;47.744;7.358;2022-08-01T13:24:00;32.50;56.30
37310;DHT22;23195;47.744;7.358;2022-08-01T13:26:56;32.50;56.60
37310;DHT22;23195;47.744;7.358;2022-08-01T13:29:36;32.60;57.10
37310;DHT22;23195;47.744;7.358;2022-08-01T13:32:14;32.60;56.20
37310;DHT22;23195;47.744;7.358;2022-08-01T13:34:40;32.40;56.00
37310;DHT22;23195;47.744;7.358;2022-08-01T13:37:05;32.40;56.40
37310;DHT22;23195;47.744;7.358;2022-08-01T13:39:31;32.50;56.40
37310;DHT22;23195;47.744;7.358;2022-08-01T13:42:12;32.50;56.90
37310;DHT22;23195;47.744;7.358;2022-08-01T13:44:39;32.60;56.90
37310;DHT22;23195;47.744;7.358;2022-08-01T13:47:05;32.70;56.10
37310;DHT22;23195;47.744;7.358;2022-08-01T13:49:31;32.60;56.10
37310;DHT22;23195;47.744;7.358;2022-08-01T13:52:06;32.50;56.20
37310;DHT22;23195;47.744;7.358;2022-08-01T13:54:35;32.40;55.40
37310;DHT22;23195;47.744;7.358;2022-08-01T13:57:04;32.30;55.40
37310;DHT22;23195;47.744;7.358;2022-08-01T13:59:33;32.10;56.00
37310;DHT22;23195;47.744;7.358;2022-08-01T14:01:59;32.00;55.20
37310;DHT22;23195;47.744;7.358;2022-08-01T14:04:25;31.90;55.80
37310;DHT22;23195;47.744;7.358;2022-08-01T14:06:51;31.80;55.60
37310;DHT22;23195;47.744;7.358;2022-08-01T14:09:17;31.80;55.60
37310;DHT22;23195;47.744;7.358;2022-08-01T14:11:45;31.90;56.10
37310;DHT22;23195;47.744;7.358;2022-08-01T14:14:10;31.90;55.70
37310;DHT22;23195;47.744;7.358;2022-08-01T14:16:36;32.00;55.20
37310;DHT22;23195;47.744;7.358;2022-08-01T14:19:03;32.00;55.20
37310;DHT22;23195;47.744;7.358;2022-08-01T14:21:29;32.10;54.70
37310;DHT22;23195;47.744;7.358;2022-08-01T14:23:55;32.00;55.30
37310;DHT22;23195;47.744;7.358;2022-08-01T14:26:20;32.10;55.60
37310;DHT22;23195;47.744;7.358;2022-08-01T14:28:46;32.10;55.50
37310;DHT22;23195;47.744;7.358;2022-08-01T14:31:12;32.10;55.00
37310;DHT22;23195;47.744;7.358;2022-08-01T14:33:38;32.10;54.80
37310;DHT22;23195;47.744;7.358;2022-08-01T14:36:04;32.40;55.50
37310;DHT22;23195;47.744;7.358;2022-08-01T14:38:30;32.70;54.20
37310;DHT22;23195;47.744;7.358;2022-08-01T14:40:56;32.90;54.80
37310;DHT22;23195;47.744;7.358;2022-08-01T14:43:21;33.10;54.60
37310;DHT22;23195;47.744;7.358;2022-08-01T14:45:47;33.40;54.50
37310;DHT22;23195;47.744;7.358;2022-08-01T14:48:18;33.60;54.50
37310;DHT22;23195;47.744;7.358;2022-08-01T14:50:52;33.50;54.70
37310;DHT22;23195;47.744;7.358;2022-08-01T14:53:18;33.20;54.70
37310;DHT22;23195;47.744;7.358;2022-08-01T14:55:44;32.90;55.30
37310;DHT22;23195;47.744;7.358;2022-08-01T14:58:17;32.60;55.30
37310;DHT22;23195;47.744;7.358;2022-08-01T15:00:43;32.30;55.80
37310;DHT22;23195;47.744;7.358;2022-08-01T15:03:09;32.00;55.70
37310;DHT22;23195;47.744;7.358;2022-08-01T15:05:37;31.90;55.90
37310;DHT22;23195;47.744;7.358;2022-08-01T15:08:05;31.80;56.60
37310;DHT22;23195;47.744;7.358;2022-08-01T15:10:37;31.90;56.50
37310;DHT22;23195;47.744;7.358;2022-08-01T15:13:03;31.70;56.40
37310;DHT22;23195;47.744;7.358;2022-08-01T15:15:28;31.90;56.50
37310;DHT22;23195;47.744;7.358;2022-08-01T15:17:54;32.00;56.40
37310;DHT22;23195;47.744;7.358;2022-08-01T15:20:20;32.10;56.40
37310;DHT22;23195;47.744;7.358;2022-08-01T15:22:46;32.20;55.80
37310;DHT22;23195;47.744;7.358;2022-08-01T15:25:13;32.30;55.70
37310;DHT22;23195;47.744;7.358;2022-08-01T15:27:39;32.20;55.30
37310;DHT22;23195;47.744;7.358;2022-08-01T15:30:05;32.10;55.20
37310;DHT22;23195;47.744;7.358;2022-08-01T15:32:31;32.10;55.10
37310;DHT22;23195;47.744;7.358;2022-08-01T15:35:00;32.10;55.20
37310;DHT22;23195;47.744;7.358;2022-08-01T15:37:26;32.10;55.40
37310;DHT22;23195;47.744;7.358;2022-08-01T15:39:51;32.00;55.50
37310;DHT22;23195;47.744;7.358;2022-08-01T15:42:18;31.60;55.80
37310;DHT22;23195;47.744;7.358;2022-08-01T15:44:44;31.60;56.90
37310;DHT22;23195;47.744;7.358;2022-08-01T15:47:12;31.50;57.00
37310;DHT22;23195;47.744;7.358;2022-08-01T15:49:39;31.40;56.90
37310;DHT22;23195;47.744;7.358;2022-08-01T15:52:05;31.50;57.50
37310;DHT22;23195;47.744;7.358;2022-08-01T15:54:32;31.40;57.00
37310;DHT22;23195;47.744;7.358;2022-08-01T15:56:58;31.40;57.00
37310;DHT22;23195;47.744;7.358;2022-08-01T15:59:29;31.40;57.10
37310;DHT22;23195;47.744;7.358;2022-08-01T16:01:55;31.40;57.40
37310;DHT22;23195;47.744;7.358;2022-08-01T16:04:21;31.20;57.60
37310;DHT22;23195;47.744;7.358;2022-08-01T16:06:47;31.00;57.60
37310;DHT22;23195;47.744;7.358;2022-08-01T16:09:13;30.90;57.90
37310;DHT22;23195;47.744;7.358;2022-08-01T16:11:39;30.90;58.00
37310;DHT22;23195;47.744;7.358;2022-08-01T16:14:04;30.90;58.50
37310;DHT22;23195;47.744;7.358;2022-08-01T16:16:31;30.80;58.50
37310;DHT22;23195;47.744;7.358;2022-08-01T16:18:56;30.80;58.70
37310;DHT22;23195;47.744;7.358;2022-08-01T16:21:22;30.70;59.00
37310;DHT22;23195;47.744;7.358;2022-08-01T16:23:49;30.60;60.00
37310;DHT22;23195;47.744;7.358;2022-08-01T16:26:16;30.50;60.00
37310;DHT22;23195;47.744;7.358;2022-08-01T16:28:42;30.40;60.60
37310;DHT22;23195;47.744;7.358;2022-08-01T16:31:13;30.00;60.70
37310;DHT22;23195;47.744;7.358;2022-08-01T16:33:40;30.20;61.20
37310;DHT22;23195;47.744;7.358;2022-08-01T16:36:07;30.10;61.80
37310;DHT22;23195;47.744;7.358;2022-08-01T16:38:42;30.10;62.20
37310;DHT22;23195;47.744;7.358;2022-08-01T16:41:09;30.00;62.90
37310;DHT22;23195;47.744;7.358;2022-08-01T16:43:35;30.00;62.90
37310;DHT22;23195;47.744;7.358;2022-08-01T16:46:04;29.90;63.40
37310;DHT22;23195;47.744;7.358;2022-08-01T16:48:37;29.90;63.50
37310;DHT22;23195;47.744;7.358;2022-08-01T16:51:04;29.80;64.00
37310;DHT22;23195;47.744;7.358;2022-08-01T16:53:30;29.80;64.40
37310;DHT22;23195;47.744;7.358;2022-08-01T16:55:55;29.70;67.50